sensor_id;sensor_type;location;lat;lon;timestamp;P1;durP1;ratioP1;P2;durP2;ratioP2
48859;SDS011;34679;51.436;-2.518;2022-12-05T00:01:35;15.93;;;9.55;;
48859;SDS011;34679;51.436;-2.518;2022-12-05T00:04:04;17.00;;;10.73;;
48859;SDS011;34679;51.436;-2.518;2022-12-05T00:06:32;14.88;;;9.20;;
48859;SDS011;34679;51.436;-2.518;2022-12-05T00:08:59;18.35;;;10.60;;
48859;SDS011;34679;51.436;-2.518;2022-12-05T00:11:27;12.88;;;8.95;;
48859;SDS011;34679;51.436;-2.518;2022-12-05T00:13:55;15.48;;;10.02;;
48859;SDS011;34679;51.436;-2.518;2022-12-05T00:16:23;15.38;;;10.05;;
48859;SDS011;34679;51.436;-2.518;2022-12-05T00:18:50;15.35;;;10.20;;
48859;SDS011;34679;51.436;-2.518;2022-12-05T00:21:21;13.43;;;9.48;;
48859;SDS011;34679;51.436;-2.518;2022-12-05T00:23:48;15.45;;;10.82;;
48859;SDS011;34679;51.436;-2.518;2022-12-05T00:26:14;16.60;;;10.32;;
48859;SDS011;34679;51.436;-2.518;2022-12-05T00:28:41;16.15;;;10.38;;
48859;SDS011;34679;51.436;-2.518;2022-12-05T00:31:08;15.13;;;9.13;;
48859;SDS011;34679;51.436;-2.518;2022-12-05T00:33:35;16.48;;;10.25;;
48859;SDS011;34679;51.436;-2.518;2022-12-05T00:36:05;15.75;;;11.43;;
48859;SDS011;34679;51.436;-2.518;2022-12-05T00:38:33;16.70;;;11.15;;
48859;SDS011;34679;51.436;-2.518;2022-12-05T00:41:06;16.85;;;10.60;;
48859;SDS011;34679;51.436;-2.518;2022-12-05T00:43:33;15.18;;;10.60;;
48859;SDS011;34679;51.436;-2.518;2022-12-05T00:46:00;15.38;;;10.55;;
48859;SDS011;34679;51.436;-2.518;2022-12-05T00:48:33;13.98;;;9.30;;
48859;SDS011;34679;51.436;-2.518;2022-12-05T00:51:01;16.58;;;10.32;;
48859;SDS011;34679;51.436;-2.518;2022-12-05T00:53:34;20.30;;;10.50;;
48859;SDS011;34679;51.436;-2.518;2022-12-05T00:56:01;18.45;;;9.38;;
48859;SDS011;34679;51.436;-2.518;2022-12-05T00:58:29;17.08;;;9.75;;
48859;SDS011;34679;51.436;-2.518;2022-12-05T01:00:55;15.48;;;9.65;;
48859;SDS011;34679;51.436;-2.518;2022-12-05T01:03:21;13.52;;;9.50;;
48859;SDS011;34679;51.436;-2.518;2022-12-05T01:05:47;14.85;;;9.98;;
48859;SDS011;34679;51.436;-2.518;2022-12-05T01:08:12;13.82;;;8.98;;
48859;SDS011;34679;51.436;-2.518;2022-12-05T01:10:38;12.20;;;8.95;;
48859;SDS011;34679;51.436;-2.518;2022-12-05T01:13:04;11.70;;;8.77;;
48859;SDS011;34679;51.436;-2.518;2022-12-05T01:15:29;15.85;;;10.18;;
48859;SDS011;34679;51.436;-2.518;2022-12-05T01:17:55;15.00;;;10.50;;
48859;SDS011;34679;51.436;-2.518;2022-12-05T01:20:21;15.40;;;10.80;;
48859;SDS011;34679;51.436;-2.518;2022-12-05T01:22:46;13.80;;;9.13;;
48859;SDS011;34679;51.436;-2.518;2022-12-05T01:25:12;16.33;;;9.90;;
48859;SDS011;34679;51.436;-2.518;2022-12-05T01:27:38;14.73;;;9.95;;
48859;SDS011;34679;51.436;-2.518;2022-12-05T01:30:04;17.13;;;10.15;;
48859;SDS011;34679;51.436;-2.518;2022-12-05T01:32:30;12.55;;;9.73;;
48859;SDS011;34679;51.436;-2.518;2022-12-05T01:34:56;12.98;;;10.32;;
48859;SDS011;34679;51.436;-2.518;2022-12-05T01:37:22;15.40;;;9.60;;
48859;SDS011;34679;51.436;-2.518;2022-12-05T01:39:48;16.95;;;10.20;;
48859;SDS011;34679;51.436;-2.518;2022-12-05T01:42:13;16.67;;;10.15;;
48859;SDS011;34679;51.436;-2.518;2022-12-05T01:47:11;15.13;;;10.10;;
48859;SDS011;34679;51.436;-2.518;2022-12-05T01:49:41;13.35;;;9.68;;
48859;SDS011;34679;51.436;-2.518;2022-12-05T01:52:15;18.20;;;11.45;;
48859;SDS011;34679;51.436;-2.518;2022-12-05T01:54:46;16.23;;;11.23;;
48859;SDS011;34679;51.436;-2.518;2022-12-05T01:57:14;16.17;;;10.38;;
48859;SDS011;34679;51.436;-2.518;2022-12-05T01:59:41;16.67;;;10.98;;
48859;SDS011;34679;51.436;-2.518;2022-12-05T02:02:11;18.25;;;10.88;;
48859;SDS011;34679;51.436;-2.518;2022-12-05T02:04:42;17.17;;;10.20;;
48859;SDS011;34679;51.436;-2.518;2022-12-05T02:07:22;18.77;;;10.02;;
48859;SDS011;34679;51.436;-2.518;2022-12-05T02:09:48;17.50;;;10.95;;
48859;SDS011;34679;51.436;-2.518;2022-12-05T02:12:15;16.38;;;10.65;;
48859;SDS011;34679;51.436;-2.518;2022-12-05T02:14:55;13.68;;;10.25;;
48859;SDS011;34679;51.436;-2.518;2022-12-05T02:20:18;13.82;;;9.13;;
48859;SDS011;34679;51.436;-2.518;2022-12-05T02:22:54;14.38;;;9.77;;
48859;SDS011;34679;51.436;-2.518;2022-12-05T02:30:40;13.70;;;9.35;;
48859;SDS011;34679;51.436;-2.518;2022-12-05T02:38:55;15.07;;;9.55;;
48859;SDS011;34679;51.436;-2.518;2022-12-05T02:44:03;13.30;;;8.75;;
48859;SDS011;34679;51.436;-2.518;2022-12-05T02:46:33;13.93;;;8.80;;
48859;SDS011;34679;51.436;-2.518;2022-12-05T02:49:03;13.80;;;9.52;;
48859;SDS011;34679;51.436;-2.518;2022-12-05T02:51:34;12.10;;;8.80;;
48859;SDS011;34679;51.436;-2.518;2022-12-05T02:54:13;10.15;;;7.00;;
48859;SDS011;34679;51.436;-2.518;2022-12-05T02:56:43;11.98;;;8.77;;
48859;SDS011;34679;51.436;-2.518;2022-12-05T02:59:11;11.10;;;8.40;;
48859;SDS011;34679;51.436;-2.518;2022-12-05T03:01:37;11.15;;;8.00;;
48859;SDS011;34679;51.436;-2.518;2022-12-05T03:04:03;12.85;;;9.30;;
48859;SDS011;34679;51.436;-2.518;2022-12-05T03:06:39;13.05;;;8.88;;
48859;SDS011;34679;51.436;-2.518;2022-12-05T03:09:40;12.82;;;8.63;;
48859;SDS011;34679;51.436;-2.518;2022-12-05T03:12:12;13.88;;;9.90;;
48859;SDS011;34679;51.436;-2.518;2022-12-05T03:14:54;15.90;;;10.07;;
48859;SDS011;34679;51.436;-2.518;2022-12-05T03:17:30;11.80;;;9.20;;
48859;SDS011;34679;51.436;-2.518;2022-12-05T03:23:25;15.77;;;10.32;;
48859;SDS011;34679;51.436;-2.518;2022-12-05T03:31:50;13.98;;;10.02;;
48859;SDS011;34679;51.436;-2.518;2022-12-05T03:42:46;17.08;;;11.25;;
48859;SDS011;34679;51.436;-2.518;2022-12-05T03:45:22;17.05;;;11.77;;
48859;SDS011;34679;51.436;-2.518;2022-12-05T03:47:58;17.83;;;11.68;;
48859;SDS011;34679;51.436;-2.518;2022-12-05T03:50:29;19.05;;;12.35;;
48859;SDS011;34679;51.436;-2.518;2022-12-05T03:53:01;19.75;;;12.95;;
48859;SDS011;34679;51.436;-2.518;2022-12-05T03:55:34;16.77;;;11.48;;
48859;SDS011;34679;51.436;-2.518;2022-12-05T03:58:07;21.20;;;13.10;;
48859;SDS011;34679;51.436;-2.518;2022-12-05T04:00:38;18.73;;;11.65;;
48859;SDS011;34679;51.436;-2.518;2022-12-05T04:03:12;20.67;;;13.70;;
48859;SDS011;34679;51.436;-2.518;2022-12-05T04:05:51;18.98;;;12.52;;
48859;SDS011;34679;51.436;-2.518;2022-12-05T04:08:34;20.85;;;13.40;;
48859;SDS011;34679;51.436;-2.518;2022-12-05T04:11:10;21.25;;;12.38;;
48859;SDS011;34679;51.436;-2.518;2022-12-05T04:13:44;19.55;;;12.75;;
48859;SDS011;34679;51.436;-2.518;2022-12-05T04:19:21;20.20;;;13.15;;
48859;SDS011;34679;51.436;-2.518;2022-12-05T04:21:50;22.15;;;14.43;;
48859;SDS011;34679;51.436;-2.518;2022-12-05T04:24:19;22.13;;;14.52;;
48859;SDS011;34679;51.436;-2.518;2022-12-05T04:30:08;22.35;;;13.45;;
48859;SDS011;34679;51.436;-2.518;2022-12-05T04:32:39;23.88;;;15.00;;
48859;SDS011;34679;51.436;-2.518;2022-12-05T04:35:36;23.77;;;15.98;;
48859;SDS011;34679;51.436;-2.518;2022-12-05T04:38:29;23.75;;;14.65;;
48859;SDS011;34679;51.436;-2.518;2022-12-05T04:41:06;24.10;;;15.18;;
48859;SDS011;34679;51.436;-2.518;2022-12-05T04:43:38;22.20;;;14.90;;
48859;SDS011;34679;51.436;-2.518;2022-12-05T04:46:06;28.45;;;15.88;;
48859;SDS011;34679;51.436;-2.518;2022-12-05T04:48:36;23.83;;;15.38;;
48859;SDS011;34679;51.436;-2.518;2022-12-05T04:51:05;25.10;;;15.13;;
48859;SDS011;34679;51.436;-2.518;2022-12-05T04:53:33;21.88;;;14.38;;
48859;SDS011;34679;51.436;-2.518;2022-12-05T04:56:01;26.42;;;16.08;;
48859;SDS011;34679;51.436;-2.518;2022-12-05T04:58:28;25.20;;;16.33;;
48859;SDS011;34679;51.436;-2.518;2022-12-05T05:00:57;21.58;;;14.30;;
48859;SDS011;34679;51.436;-2.518;2022-12-05T05:06:21;22.90;;;15.23;;
48859;SDS011;34679;51.436;-2.518;2022-12-05T05:08:49;22.52;;;14.60;;
48859;SDS011;34679;51.436;-2.518;2022-12-05T05:11:21;22.65;;;15.27;;
48859;SDS011;34679;51.436;-2.518;2022-12-05T05:13:51;22.80;;;15.07;;
48859;SDS011;34679;51.436;-2.518;2022-12-05T05:16:21;23.88;;;14.65;;
48859;SDS011;34679;51.436;-2.518;2022-12-05T05:18:52;28.67;;;15.52;;
48859;SDS011;34679;51.436;-2.518;2022-12-05T05:21:25;26.30;;;15.57;;
48859;SDS011;34679;51.436;-2.518;2022-12-05T05:23:55;29.08;;;15.15;;
48859;SDS011;34679;51.436;-2.518;2022-12-05T05:26:22;28.25;;;15.48;;
48859;SDS011;34679;51.436;-2.518;2022-12-05T05:28:48;23.52;;;16.15;;
48859;SDS011;34679;51.436;-2.518;2022-12-05T05:31:15;31.52;;;16.42;;
48859;SDS011;34679;51.436;-2.518;2022-12-05T05:33:42;26.45;;;15.13;;
48859;SDS011;34679;51.436;-2.518;2022-12-05T05:36:09;25.00;;;13.85;;
48859;SDS011;34679;51.436;-2.518;2022-12-05T05:38:37;21.95;;;15.18;;
48859;SDS011;34679;51.436;-2.518;2022-12-05T05:41:03;25.05;;;15.88;;
48859;SDS011;34679;51.436;-2.518;2022-12-05T05:43:30;24.45;;;14.95;;
48859;SDS011;34679;51.436;-2.518;2022-12-05T05:45:55;24.40;;;14.93;;
48859;SDS011;34679;51.436;-2.518;2022-12-05T05:48:21;25.42;;;17.52;;
48859;SDS011;34679;51.436;-2.518;2022-12-05T05:50:47;27.77;;;15.85;;
48859;SDS011;34679;51.436;-2.518;2022-12-05T05:53:13;27.75;;;16.98;;
48859;SDS011;34679;51.436;-2.518;2022-12-05T05:55:39;27.05;;;17.15;;
48859;SDS011;34679;51.436;-2.518;2022-12-05T05:58:05;27.48;;;16.73;;
48859;SDS011;34679;51.436;-2.518;2022-12-05T06:00:31;29.23;;;16.63;;
48859;SDS011;34679;51.436;-2.518;2022-12-05T06:02:56;29.70;;;16.98;;
48859;SDS011;34679;51.436;-2.518;2022-12-05T06:05:22;31.73;;;16.67;;
48859;SDS011;34679;51.436;-2.518;2022-12-05T06:07:48;33.15;;;18.88;;
48859;SDS011;34679;51.436;-2.518;2022-12-05T06:10:14;27.10;;;17.77;;
48859;SDS011;34679;51.436;-2.518;2022-12-05T06:12:39;25.67;;;16.95;;
48859;SDS011;34679;51.436;-2.518;2022-12-05T06:15:05;27.85;;;17.48;;
48859;SDS011;34679;51.436;-2.518;2022-12-05T06:17:32;25.40;;;16.55;;
48859;SDS011;34679;51.436;-2.518;2022-12-05T06:19:57;24.20;;;16.05;;
48859;SDS011;34679;51.436;-2.518;2022-12-05T06:22:23;24.15;;;14.65;;
48859;SDS011;34679;51.436;-2.518;2022-12-05T06:24:48;25.60;;;14.40;;
48859;SDS011;34679;51.436;-2.518;2022-12-05T06:27:15;28.30;;;16.60;;
48859;SDS011;34679;51.436;-2.518;2022-12-05T06:29:40;29.02;;;15.80;;
48859;SDS011;34679;51.436;-2.518;2022-12-05T06:32:06;23.42;;;15.05;;
48859;SDS011;34679;51.436;-2.518;2022-12-05T06:34:32;26.27;;;15.10;;
48859;SDS011;34679;51.436;-2.518;2022-12-05T06:36:59;22.90;;;16.35;;
48859;SDS011;34679;51.436;-2.518;2022-12-05T06:39:25;26.45;;;16.02;;
48859;SDS011;34679;51.436;-2.518;2022-12-05T06:41:50;26.27;;;15.10;;
48859;SDS011;34679;51.436;-2.518;2022-12-05T06:44:16;24.90;;;16.13;;
48859;SDS011;34679;51.436;-2.518;2022-12-05T06:46:42;30.33;;;15.82;;
48859;SDS011;34679;51.436;-2.518;2022-12-05T06:49:08;27.70;;;16.75;;
48859;SDS011;34679;51.436;-2.518;2022-12-05T06:51:35;30.02;;;17.85;;
48859;SDS011;34679;51.436;-2.518;2022-12-05T06:54:00;28.42;;;17.60;;
48859;SDS011;34679;51.436;-2.518;2022-12-05T06:56:26;25.60;;;18.17;;
48859;SDS011;34679;51.436;-2.518;2022-12-05T06:58:53;25.48;;;16.45;;
48859;SDS011;34679;51.436;-2.518;2022-12-05T07:01:20;30.73;;;18.55;;
48859;SDS011;34679;51.436;-2.518;2022-12-05T07:04:11;26.20;;;16.77;;
48859;SDS011;34679;51.436;-2.518;2022-12-05T07:06:42;25.80;;;17.05;;
48859;SDS011;34679;51.436;-2.518;2022-12-05T07:09:08;27.65;;;17.48;;
48859;SDS011;34679;51.436;-2.518;2022-12-05T07:11:34;26.52;;;17.13;;
48859;SDS011;34679;51.436;-2.518;2022-12-05T07:14:01;31.85;;;17.45;;
48859;SDS011;34679;51.436;-2.518;2022-12-05T07:16:27;28.10;;;17.52;;
48859;SDS011;34679;51.436;-2.518;2022-12-05T07:18:53;29.80;;;17.80;;
48859;SDS011;34679;51.436;-2.518;2022-12-05T07:21:20;30.23;;;18.10;;
48859;SDS011;34679;51.436;-2.518;2022-12-05T07:23:46;31.30;;;17.98;;
48859;SDS011;34679;51.436;-2.518;2022-12-05T07:26:15;30.23;;;17.00;;
48859;SDS011;34679;51.436;-2.518;2022-12-05T07:28:45;30.77;;;17.10;;
48859;SDS011;34679;51.436;-2.518;2022-12-05T07:31:12;34.40;;;18.17;;
48859;SDS011;34679;51.436;-2.518;2022-12-05T07:33:40;28.52;;;17.10;;
48859;SDS011;34679;51.436;-2.518;2022-12-05T07:36:07;31.80;;;18.17;;
48859;SDS011;34679;51.436;-2.518;2022-12-05T07:38:35;32.10;;;18.67;;
48859;SDS011;34679;51.436;-2.518;2022-12-05T07:41:05;29.73;;;18.13;;
48859;SDS011;34679;51.436;-2.518;2022-12-05T07:43:32;29.55;;;17.83;;
48859;SDS011;34679;51.436;-2.518;2022-12-05T07:46:02;40.03;;;19.42;;
48859;SDS011;34679;51.436;-2.518;2022-12-05T07:48:28;29.50;;;17.83;;
48859;SDS011;34679;51.436;-2.518;2022-12-05T07:50:57;34.03;;;19.27;;
48859;SDS011;34679;51.436;-2.518;2022-12-05T07:53:27;19.17;;;13.80;;
48859;SDS011;34679;51.436;-2.518;2022-12-05T07:55:54;28.95;;;17.42;;
48859;SDS011;34679;51.436;-2.518;2022-12-05T07:58:22;31.27;;;17.48;;
48859;SDS011;34679;51.436;-2.518;2022-12-05T08:00:48;29.85;;;17.92;;
48859;SDS011;34679;51.436;-2.518;2022-12-05T08:03:13;33.63;;;18.70;;
48859;SDS011;34679;51.436;-2.518;2022-12-05T08:05:39;27.80;;;18.92;;
48859;SDS011;34679;51.436;-2.518;2022-12-05T08:08:05;33.60;;;19.90;;
48859;SDS011;34679;51.436;-2.518;2022-12-05T08:10:30;34.00;;;18.70;;
48859;SDS011;34679;51.436;-2.518;2022-12-05T08:12:58;31.98;;;19.02;;
48859;SDS011;34679;51.436;-2.518;2022-12-05T08:15:23;37.78;;;19.90;;
48859;SDS011;34679;51.436;-2.518;2022-12-05T08:17:49;34.67;;;20.75;;
48859;SDS011;34679;51.436;-2.518;2022-12-05T08:20:14;30.77;;;18.27;;
48859;SDS011;34679;51.436;-2.518;2022-12-05T08:22:40;40.88;;;20.02;;
48859;SDS011;34679;51.436;-2.518;2022-12-05T08:25:06;30.30;;;18.42;;
48859;SDS011;34679;51.436;-2.518;2022-12-05T08:27:32;27.10;;;17.75;;
48859;SDS011;34679;51.436;-2.518;2022-12-05T08:29:57;33.97;;;18.52;;
48859;SDS011;34679;51.436;-2.518;2022-12-05T08:32:23;25.67;;;16.42;;
48859;SDS011;34679;51.436;-2.518;2022-12-05T08:34:49;26.02;;;18.92;;
48859;SDS011;34679;51.436;-2.518;2022-12-05T08:37:20;28.80;;;18.60;;
48859;SDS011;34679;51.436;-2.518;2022-12-05T08:39:46;30.65;;;18.33;;
48859;SDS011;34679;51.436;-2.518;2022-12-05T08:42:13;30.90;;;19.85;;
48859;SDS011;34679;51.436;-2.518;2022-12-05T08:44:39;32.17;;;20.05;;
48859;SDS011;34679;51.436;-2.518;2022-12-05T08:47:05;29.90;;;18.15;;
48859;SDS011;34679;51.436;-2.518;2022-12-05T08:49:30;27.73;;;17.33;;
48859;SDS011;34679;51.436;-2.518;2022-12-05T08:51:56;30.35;;;19.23;;
48859;SDS011;34679;51.436;-2.518;2022-12-05T08:54:22;27.35;;;18.65;;
48859;SDS011;34679;51.436;-2.518;2022-12-05T08:56:51;31.45;;;18.83;;
48859;SDS011;34679;51.436;-2.518;2022-12-05T08:59:17;34.45;;;19.92;;
48859;SDS011;34679;51.436;-2.518;2022-12-05T09:01:43;30.35;;;19.30;;
48859;SDS011;34679;51.436;-2.518;2022-12-05T09:04:08;33.55;;;17.83;;
48859;SDS011;34679;51.436;-2.518;2022-12-05T09:06:34;26.05;;;16.33;;
48859;SDS011;34679;51.436;-2.518;2022-12-05T09:09:02;32.20;;;18.40;;
48859;SDS011;34679;51.436;-2.518;2022-12-05T09:11:31;37.08;;;19.75;;
48859;SDS011;34679;51.436;-2.518;2022-12-05T09:13:59;29.60;;;17.02;;
48859;SDS011;34679;51.436;-2.518;2022-12-05T09:16:27;27.60;;;17.73;;
48859;SDS011;34679;51.436;-2.518;2022-12-05T09:18:54;31.13;;;17.70;;
48859;SDS011;34679;51.436;-2.518;2022-12-05T09:21:24;30.42;;;18.17;;
48859;SDS011;34679;51.436;-2.518;2022-12-05T09:23:54;26.05;;;16.25;;
48859;SDS011;34679;51.436;-2.518;2022-12-05T09:26:23;27.63;;;17.88;;
48859;SDS011;34679;51.436;-2.518;2022-12-05T09:28:50;26.08;;;17.45;;
48859;SDS011;34679;51.436;-2.518;2022-12-05T09:31:18;30.00;;;17.67;;
48859;SDS011;34679;51.436;-2.518;2022-12-05T09:33:45;24.65;;;16.30;;
48859;SDS011;34679;51.436;-2.518;2022-12-05T09:36:17;35.03;;;17.88;;
48859;SDS011;34679;51.436;-2.518;2022-12-05T09:38:47;31.90;;;17.90;;
48859;SDS011;34679;51.436;-2.518;2022-12-05T09:53:47;30.10;;;18.58;;
48859;SDS011;34679;51.436;-2.518;2022-12-05T09:59:32;22.20;;;15.32;;
48859;SDS011;34679;51.436;-2.518;2022-12-05T10:04:48;30.52;;;17.92;;
48859;SDS011;34679;51.436;-2.518;2022-12-05T10:15:42;23.23;;;14.50;;
48859;SDS011;34679;51.436;-2.518;2022-12-05T10:18:28;47.83;;;17.60;;
48859;SDS011;34679;51.436;-2.518;2022-12-05T10:26:18;28.48;;;16.10;;
48859;SDS011;34679;51.436;-2.518;2022-12-05T10:31:42;29.50;;;17.27;;
48859;SDS011;34679;51.436;-2.518;2022-12-05T10:34:15;26.17;;;16.15;;
48859;SDS011;34679;51.436;-2.518;2022-12-05T10:39:42;22.33;;;14.32;;
48859;SDS011;34679;51.436;-2.518;2022-12-05T10:42:16;25.85;;;15.20;;
48859;SDS011;34679;51.436;-2.518;2022-12-05T10:44:47;24.73;;;15.63;;
48859;SDS011;34679;51.436;-2.518;2022-12-05T10:47:19;26.95;;;13.98;;
48859;SDS011;34679;51.436;-2.518;2022-12-05T10:49:45;31.05;;;14.82;;
48859;SDS011;34679;51.436;-2.518;2022-12-05T10:52:11;23.55;;;15.55;;
48859;SDS011;34679;51.436;-2.518;2022-12-05T10:54:43;25.38;;;15.70;;
48859;SDS011;34679;51.436;-2.518;2022-12-05T10:57:23;28.08;;;14.63;;
48859;SDS011;34679;51.436;-2.518;2022-12-05T10:59:50;26.70;;;16.27;;
48859;SDS011;34679;51.436;-2.518;2022-12-05T11:02:19;33.50;;;15.85;;
48859;SDS011;34679;51.436;-2.518;2022-12-05T11:04:48;23.33;;;15.68;;
48859;SDS011;34679;51.436;-2.518;2022-12-05T11:07:31;25.67;;;16.02;;
48859;SDS011;34679;51.436;-2.518;2022-12-05T11:10:17;22.65;;;12.98;;
48859;SDS011;34679;51.436;-2.518;2022-12-05T11:12:58;25.10;;;13.35;;
48859;SDS011;34679;51.436;-2.518;2022-12-05T11:15:26;26.48;;;14.68;;
48859;SDS011;34679;51.436;-2.518;2022-12-05T11:17:54;30.10;;;15.98;;
48859;SDS011;34679;51.436;-2.518;2022-12-05T11:22:52;25.10;;;16.13;;
48859;SDS011;34679;51.436;-2.518;2022-12-05T11:28:00;22.75;;;14.05;;
48859;SDS011;34679;51.436;-2.518;2022-12-05T11:33:29;24.70;;;15.35;;
48859;SDS011;34679;51.436;-2.518;2022-12-05T11:36:09;28.15;;;15.10;;
48859;SDS011;34679;51.436;-2.518;2022-12-05T11:38:38;23.73;;;14.10;;
48859;SDS011;34679;51.436;-2.518;2022-12-05T11:41:30;25.13;;;14.73;;
48859;SDS011;34679;51.436;-2.518;2022-12-05T11:44:53;25.40;;;14.23;;
48859;SDS011;34679;51.436;-2.518;2022-12-05T11:52:50;22.70;;;14.23;;
48859;SDS011;34679;51.436;-2.518;2022-12-05T12:26:10;16.33;;;11.05;;
48859;SDS011;34679;51.436;-2.518;2022-12-05T12:34:40;13.98;;;10.00;;
48859;SDS011;34679;51.436;-2.518;2022-12-05T12:37:16;15.45;;;10.23;;
48859;SDS011;34679;51.436;-2.518;2022-12-05T12:40:11;15.45;;;9.30;;
48859;SDS011;34679;51.436;-2.518;2022-12-05T12:43:06;14.00;;;9.35;;
48859;SDS011;34679;51.436;-2.518;2022-12-05T12:48:57;10.82;;;9.02;;
48859;SDS011;34679;51.436;-2.518;2022-12-05T12:52:15;10.93;;;8.70;;
48859;SDS011;34679;51.436;-2.518;2022-12-05T12:57:28;14.35;;;8.25;;
48859;SDS011;34679;51.436;-2.518;2022-12-05T13:00:26;13.75;;;7.53;;
48859;SDS011;34679;51.436;-2.518;2022-12-05T13:03:16;12.48;;;8.48;;
48859;SDS011;34679;51.436;-2.518;2022-12-05T13:05:44;13.75;;;8.02;;
48859;SDS011;34679;51.436;-2.518;2022-12-05T13:08:22;13.63;;;7.18;;
48859;SDS011;34679;51.436;-2.518;2022-12-05T13:11:01;11.60;;;8.20;;
48859;SDS011;34679;51.436;-2.518;2022-12-05T13:13:32;9.23;;;7.68;;
48859;SDS011;34679;51.436;-2.518;2022-12-05T13:16:03;12.75;;;9.05;;
48859;SDS011;34679;51.436;-2.518;2022-12-05T13:18:32;10.48;;;6.75;;
48859;SDS011;34679;51.436;-2.518;2022-12-05T13:20:58;9.88;;;7.28;;
48859;SDS011;34679;51.436;-2.518;2022-12-05T13:23:28;9.52;;;7.15;;
48859;SDS011;34679;51.436;-2.518;2022-12-05T13:25:58;10.80;;;7.78;;
48859;SDS011;34679;51.436;-2.518;2022-12-05T13:28:29;9.65;;;7.82;;
48859;SDS011;34679;51.436;-2.518;2022-12-05T13:33:56;13.38;;;7.47;;
48859;SDS011;34679;51.436;-2.518;2022-12-05T13:36:21;13.15;;;8.00;;
48859;SDS011;34679;51.436;-2.518;2022-12-05T13:42:00;11.60;;;6.70;;
48859;SDS011;34679;51.436;-2.518;2022-12-05T13:44:47;9.95;;;6.93;;
48859;SDS011;34679;51.436;-2.518;2022-12-05T13:52:47;9.90;;;7.32;;
48859;SDS011;34679;51.436;-2.518;2022-12-05T13:55:21;9.48;;;5.82;;
48859;SDS011;34679;51.436;-2.518;2022-12-05T14:10:12;8.95;;;4.30;;
48859;SDS011;34679;51.436;-2.518;2022-12-05T14:12:46;7.22;;;4.60;;
48859;SDS011;34679;51.436;-2.518;2022-12-05T14:15:24;5.32;;;3.58;;
48859;SDS011;34679;51.436;-2.518;2022-12-05T14:26:25;6.28;;;4.13;;
48859;SDS011;34679;51.436;-2.518;2022-12-05T14:34:26;6.40;;;5.22;;
48859;SDS011;34679;51.436;-2.518;2022-12-05T14:37:01;6.75;;;5.70;;
48859;SDS011;34679;51.436;-2.518;2022-12-05T14:42:06;7.70;;;5.20;;
48859;SDS011;34679;51.436;-2.518;2022-12-05T14:44:46;7.57;;;4.32;;
48859;SDS011;34679;51.436;-2.518;2022-12-05T14:47:18;4.55;;;3.35;;
48859;SDS011;34679;51.436;-2.518;2022-12-05T14:52:28;8.57;;;3.35;;
48859;SDS011;34679;51.436;-2.518;2022-12-05T14:55:02;7.03;;;3.65;;
48859;SDS011;34679;51.436;-2.518;2022-12-05T14:57:35;5.55;;;3.70;;
48859;SDS011;34679;51.436;-2.518;2022-12-05T15:00:20;4.47;;;3.42;;
48859;SDS011;34679;51.436;-2.518;2022-12-05T15:02:47;5.82;;;4.03;;
48859;SDS011;34679;51.436;-2.518;2022-12-05T15:05:25;6.57;;;3.67;;
48859;SDS011;34679;51.436;-2.518;2022-12-05T15:07:58;12.73;;;4.07;;
48859;SDS011;34679;51.436;-2.518;2022-12-05T15:10:32;8.93;;;4.03;;
48859;SDS011;34679;51.436;-2.518;2022-12-05T15:13:03;6.53;;;3.72;;
48859;SDS011;34679;51.436;-2.518;2022-12-05T15:15:41;4.38;;;3.67;;
48859;SDS011;34679;51.436;-2.518;2022-12-05T15:21:03;5.60;;;3.47;;
48859;SDS011;34679;51.436;-2.518;2022-12-05T15:26:22;4.53;;;3.47;;
48859;SDS011;34679;51.436;-2.518;2022-12-05T15:29:13;7.22;;;3.38;;
48859;SDS011;34679;51.436;-2.518;2022-12-05T15:34:30;7.20;;;3.80;;
48859;SDS011;34679;51.436;-2.518;2022-12-05T15:40:16;9.75;;;4.25;;
48859;SDS011;34679;51.436;-2.518;2022-12-05T15:45:26;7.32;;;3.80;;
48859;SDS011;34679;51.436;-2.518;2022-12-05T15:50:36;7.20;;;3.97;;
48859;SDS011;34679;51.436;-2.518;2022-12-05T15:53:20;12.40;;;4.05;;
48859;SDS011;34679;51.436;-2.518;2022-12-05T15:56:15;4.88;;;3.45;;
48859;SDS011;34679;51.436;-2.518;2022-12-05T15:58:48;10.90;;;4.18;;
48859;SDS011;34679;51.436;-2.518;2022-12-05T16:01:24;7.50;;;3.92;;
48859;SDS011;34679;51.436;-2.518;2022-12-05T16:06:36;8.98;;;3.92;;
48859;SDS011;34679;51.436;-2.518;2022-12-05T16:09:13;8.02;;;3.90;;
48859;SDS011;34679;51.436;-2.518;2022-12-05T16:11:54;5.05;;;4.53;;
48859;SDS011;34679;51.436;-2.518;2022-12-05T16:14:21;7.45;;;4.85;;
48859;SDS011;34679;51.436;-2.518;2022-12-05T16:16:48;7.07;;;3.92;;
48859;SDS011;34679;51.436;-2.518;2022-12-05T16:19:20;8.43;;;3.85;;
48859;SDS011;34679;51.436;-2.518;2022-12-05T16:21:58;12.63;;;4.25;;
48859;SDS011;34679;51.436;-2.518;2022-12-05T16:24:30;6.57;;;3.58;;
48859;SDS011;34679;51.436;-2.518;2022-12-05T16:27:00;7.55;;;4.47;;
48859;SDS011;34679;51.436;-2.518;2022-12-05T16:29:31;10.45;;;4.28;;
48859;SDS011;34679;51.436;-2.518;2022-12-05T16:31:59;7.30;;;4.07;;
48859;SDS011;34679;51.436;-2.518;2022-12-05T16:34:27;5.90;;;4.10;;
48859;SDS011;34679;51.436;-2.518;2022-12-05T16:36:56;6.50;;;4.43;;
48859;SDS011;34679;51.436;-2.518;2022-12-05T16:39:23;8.65;;;4.97;;
48859;SDS011;34679;51.436;-2.518;2022-12-05T16:41:50;15.23;;;4.80;;
48859;SDS011;34679;51.436;-2.518;2022-12-05T16:46:52;13.30;;;5.50;;
48859;SDS011;34679;51.436;-2.518;2022-12-05T16:52:33;11.38;;;5.28;;
48859;SDS011;34679;51.436;-2.518;2022-12-05T16:54:46;9.52;;;5.38;;
48859;SDS011;34679;51.436;-2.518;2022-12-05T16:57:15;14.13;;;5.43;;
48859;SDS011;34679;51.436;-2.518;2022-12-05T16:59:45;9.25;;;5.03;;
48859;SDS011;34679;51.436;-2.518;2022-12-05T17:02:14;11.35;;;5.05;;
48859;SDS011;34679;51.436;-2.518;2022-12-05T17:04:41;7.10;;;5.47;;
48859;SDS011;34679;51.436;-2.518;2022-12-05T17:07:07;12.20;;;5.55;;
48859;SDS011;34679;51.436;-2.518;2022-12-05T17:09:33;16.88;;;5.68;;
48859;SDS011;34679;51.436;-2.518;2022-12-05T17:12:19;12.07;;;6.03;;
48859;SDS011;34679;51.436;-2.518;2022-12-05T17:14:48;16.08;;;5.47;;
48859;SDS011;34679;51.436;-2.518;2022-12-05T17:17:14;6.13;;;4.60;;
48859;SDS011;34679;51.436;-2.518;2022-12-05T17:19:42;11.05;;;5.35;;
48859;SDS011;34679;51.436;-2.518;2022-12-05T17:22:07;9.38;;;5.07;;
48859;SDS011;34679;51.436;-2.518;2022-12-05T17:24:34;9.13;;;5.13;;
48859;SDS011;34679;51.436;-2.518;2022-12-05T17:27:00;10.07;;;5.35;;
48859;SDS011;34679;51.436;-2.518;2022-12-05T17:29:26;6.20;;;4.03;;
48859;SDS011;34679;51.436;-2.518;2022-12-05T17:31:52;12.98;;;5.10;;
48859;SDS011;34679;51.436;-2.518;2022-12-05T17:34:18;9.35;;;4.38;;
48859;SDS011;34679;51.436;-2.518;2022-12-05T17:36:44;7.63;;;3.60;;
48859;SDS011;34679;51.436;-2.518;2022-12-05T17:39:10;12.00;;;3.75;;
48859;SDS011;34679;51.436;-2.518;2022-12-05T17:41:36;11.85;;;4.72;;
48859;SDS011;34679;51.436;-2.518;2022-12-05T17:44:02;7.63;;;4.18;;
48859;SDS011;34679;51.436;-2.518;2022-12-05T17:46:29;8.55;;;5.07;;
48859;SDS011;34679;51.436;-2.518;2022-12-05T17:48:55;11.65;;;5.32;;
48859;SDS011;34679;51.436;-2.518;2022-12-05T17:51:21;8.48;;;5.07;;
48859;SDS011;34679;51.436;-2.518;2022-12-05T17:53:47;11.55;;;5.10;;
48859;SDS011;34679;51.436;-2.518;2022-12-05T17:56:13;10.88;;;5.65;;
48859;SDS011;34679;51.436;-2.518;2022-12-05T17:58:39;8.20;;;5.43;;
48859;SDS011;34679;51.436;-2.518;2022-12-05T18:01:06;8.63;;;5.97;;
48859;SDS011;34679;51.436;-2.518;2022-12-05T18:03:34;11.98;;;4.97;;